Flight Track Log - Related Links

Times and Time Zones

All times are in EST time to prevent confusion due to time zone crossing. See the N496DA flight status page for this flight to view local times or setup timezone preferences in your user account.

Time Position Orientation Groundspeed Altitude Reporting Facility
EST Latitude Longitude Course Direction KTS MPH feet Rate Location/Type
Mon 05:17:00 PM 30.2793 -84.1166 123° Southeast  Level Estimated
Mon 05:18:00 PM 30.2463 -84.0927 148° Southeast  Level FlightAware Approximate
Mon 05:19:00 PM 30.2269 -84.0536 120° Southeast  Level Estimated
Mon 05:20:00 PM 30.2075 -84.0145 126° Southeast  Level Estimated
Mon 05:21:00 PM 30.1839 -83.9786 127° Southeast  Level FlightAware Approximate
Mon 05:22:00 PM 30.1603 -83.9427 127° Southeast  Level FlightAware Approximate
Mon 05:23:00 PM 30.1367 -83.9069 127° Southeast  Level FlightAware Approximate
Mon 05:23:59 PM 30.2100 -83.9431 125° Southeast 119 137 7,100  Level Jacksonville Center
Mon 05:24:00 PM 30.1130 -83.8711 127° Southeast  Level FlightAware Approximate
Mon 05:24:59 PM 30.1894 -83.9139 129° Southeast 119 137 7,500  Level Jacksonville Center
Mon 05:25:00 PM 30.0894 -83.8353 127° Southeast  Level FlightAware Approximate
Mon 05:25:59 PM 30.1644 -83.8800 130° Southeast 124 143 7,900  Level Jacksonville Center
Mon 05:26:00 PM 30.0658 -83.7995 127° Southeast  Level FlightAware Approximate
Mon 05:27:00 PM 30.0421 -83.7637 127° Southeast  Level FlightAware Approximate
Mon 05:27:59 PM 30.1253 -83.8197 127° Southeast 139 160 8,500  Level Jacksonville Center
Mon 05:28:00 PM 30.0185 -83.7279 127° Southeast  Level FlightAware Approximate
Mon 05:28:59 PM 30.1025 -83.7881 130° Southeast 134 154 8,900  Level Jacksonville Center
Mon 05:29:00 PM 29.9995 -83.6886 125° Southeast  Level Estimated
Mon 05:29:59 PM 30.0800 -83.7519 126° Southeast 134 154 9,000  Level Jacksonville Center
Mon 05:30:59 PM 30.0508 -83.7133 131° Southeast 139 160 9,100  Climbing Jacksonville Center
Mon 05:31:59 PM 30.0242 -83.6700 125° Southeast 150 173 9,000 -25 Descending Jacksonville Center
Mon 05:34:59 PM 29.9369 -83.5444 136° Southeast 161 185 9,000  Level Jacksonville Center
Mon 05:35:59 PM 29.9081 -83.5011 128° Southeast 161 185 9,000  Level Jacksonville Center
Mon 05:36:59 PM 29.8789 -83.4581 128° Southeast 161 185 9,000  Level Jacksonville Center
Mon 05:37:59 PM 29.8500 -83.4169 129° Southeast 161 185 9,000 50 Level Jacksonville Center
Mon 05:38:59 PM 29.8208 -83.3761 129° Southeast 161 185 9,100 50 Climbing Jacksonville Center
Mon 05:39:59 PM 29.7939 -83.3331 126° Southeast 161 185 9,100  Level Jacksonville Center
Mon 05:40:59 PM 29.7647 -83.2897 128° Southeast 161 185 9,100 -50 Level Jacksonville Center
Mon 05:41:59 PM 29.7358 -83.2514 131° Southeast 161 185 9,000  Descending Jacksonville Center
Mon 05:42:59 PM 29.7128 -83.2131 125° Southeast 161 185 9,100 50 Climbing Jacksonville Center
Mon 05:43:59 PM 29.6817 -83.1700 130° Southeast 161 185 9,100  Level Jacksonville Center
Mon 05:44:27 PM 29.6628 -83.1458 132° Southeast 167 192 9,100  Level Jacksonville Center
Mon 05:44:39 PM 29.6567 -83.1389 135° Southeast 167 192 9,100  Level Jacksonville Center
Mon 05:45:40 PM 29.6297 -83.0981 127° Southeast 166 191 9,100 -75 Level Jacksonville Center
Mon 05:45:59 PM 29.6275 -83.0861 102° East 161 185 9,000  Descending Jacksonville Center
Mon 05:46:59 PM 29.5961 -83.0478 133° Southeast 161 185 9,100  Climbing Jacksonville Center
Mon 05:47:42 PM 29.5753 -83.0097 122° Southeast 170 196 9,000 -58 Descending Jacksonville Center
Mon 05:48:43 PM 29.5525 -82.9642 120° Southeast 169 194 9,000  Level Jacksonville Center
Mon 05:48:59 PM 29.5483 -82.9547 117° Southeast 166 191 9,000  Level Jacksonville Center
Mon 05:49:44 PM 29.5253 -82.9164 125° Southeast 168 193 9,000  Level Jacksonville Center
Mon 05:49:59 PM 29.5275 -82.9069 75° East 166 191 9,000 98 Level Jacksonville Center
Mon 05:50:45 PM 29.5044 -82.8664 123° Southeast 167 192 9,100  Climbing Jacksonville Center
Mon 05:50:59 PM 29.5067 -82.8592 71° East 166 191 9,000 -88 Descending Jacksonville Center
Mon 05:51:53 PM 29.4794 -82.8186 128° Southeast 167 192 9,000  Level Jacksonville Center
Mon 05:51:59 PM 29.4794 -82.8139 90° East 166 191 9,000 -496 Level Jacksonville Center
Mon 05:53:54 PM 29.4250 -82.7161 121° Southeast 193 222 8,000 -450 Descending Jacksonville Center
Mon 05:53:59 PM 29.4272 -82.7161 360° North 172 198 8,100 -984 Climbing Jacksonville Center
Mon 05:54:55 PM 29.3978 -82.6589 121° Southeast 200 230 7,000 -1,077 Descending Jacksonville Center
Mon 05:55:56 PM 29.3706 -82.6089 122° Southeast 192 221 6,000 -934 Descending Jacksonville Center
Mon 05:56:57 PM 29.3453 -82.5567 119° Southeast 184 212 5,100 -326 Descending Jacksonville Center
Mon 05:59:00 PM 29.3014 -82.4686 120° Southeast 146 168 5,000 -33 Descending Jacksonville Center
Mon 06:00:01 PM 29.2803 -82.4283 121° Southeast 147 169 5,000  Level Jacksonville Center
Mon 06:01:02 PM 29.2592 -82.3856 119° Southeast 148 170 5,000  Level Jacksonville Center
Mon 06:02:09 PM 29.2339 -82.3406 123° Southeast 150 173 5,000  Level Jacksonville Center
Mon 06:04:05 PM 29.1939 -82.2622 120° Southeast 150 173 5,000 34 Level Jacksonville Center
Mon 06:05:06 PM 29.1708 -82.2194 122° Southeast 151 174 5,100  Climbing Jacksonville Center
Mon 06:06:06 PM 29.1456 -82.1817 127° Southeast 152 175 5,000 -30 Descending Jacksonville Center
Mon 06:08:25 PM 29.0833 -82.0833 126° Southeast 157 181 5,000  Level Orlando TRACON
Mon 06:09:25 PM 29.0500 -82.0500 139° Southeast 151 174 5,000  Level Orlando TRACON
Mon 06:10:25 PM 29.0333 -82.0167 120° Southeast 153 176 5,000  Level Orlando TRACON
Mon 06:11:25 PM 29.0000 -81.9833 139° Southeast 156 180 5,000  Level Orlando TRACON
Mon 06:12:25 PM 28.9833 -81.9333 111° Southeast 154 177 5,000  Level Orlando TRACON
Mon 06:13:25 PM 28.9500 -81.9000 139° Southeast 155 178 5,000  Level Orlando TRACON
Mon 06:14:25 PM 28.9167 -81.8667 139° Southeast 153 176 5,000  Level Orlando TRACON
Mon 06:15:26 PM 28.9167 -81.8167 90° East 165 190 5,000  Level Orlando TRACON
Mon 06:16:26 PM 28.9000 -81.7667 111° Southeast 159 183 5,000 -350 Level Orlando TRACON
Mon 06:17:26 PM 28.8833 -81.7167 111° Southeast 184 212 4,300 -650 Descending Orlando TRACON
Mon 06:18:26 PM 28.8667 -81.6667 111° Southeast 174 200 3,700 -650 Descending Orlando TRACON
Mon 06:19:26 PM 28.8333 -81.6333 139° Southeast 168 193 3,000 -550 Descending Orlando TRACON
Mon 06:20:26 PM 28.7833 -81.6167 164° South 167 192 2,600 -450 Descending Orlando TRACON
Mon 06:21:26 PM 28.7667 -81.5833 120° Southeast 154 177 2,100 -250 Descending Orlando TRACON
Mon 06:22:26 PM 28.7833 -81.5500 60° Northeast 110 127 2,100 -50 Level Orlando TRACON
Mon 06:23:27 PM 28.8000 -81.5167 60° Northeast 120 138 2,000 -50 Descending Orlando TRACON
Mon 06:24:27 PM 28.8000 -81.4833 90° East 114 131 2,000 -50 Level Orlando TRACON
Mon 06:25:27 PM 28.7833 -81.4500 120° Southeast 129 148 1,900 -50 Descending Orlando TRACON
Mon 06:26:27 PM 28.7833 -81.4000 90° East 127 146 1,900 -200 Level Orlando TRACON
Mon 06:27:27 PM 28.7833 -81.3667 90° East 136 157 1,500 -267 Descending Orlando TRACON
Mon 06:29:27 PM 28.7833 -81.2833 90° East 135 155 1,100 -200 Descending Orlando TRACON
Mon 06:31:00 PM 28.7667 -81.2333 103° East  Level FlightAware Approximate
Mon 06:38:00 PM 28.7770 -81.2349 103° East  Level Estimated
Mon 06:39:00 PM 28.7770 -81.2349 103° East  Level Estimated
Mon 06:40:00 PM 28.7770 -81.2349 103° East  Level Estimated
Mon 06:41:00 PM 28.7770 -81.2349 103° East  Level Estimated

Login

Don't have an account? Register now (free) for customized features, flight alerts, and more!